Time;durP1;ratioP1;P1;durP2;ratioP2;P2;SDS_P1;SDS_P2;PMS_P1;PMS_P2;Temp;Humidity;BMP_temperature;BMP_pressure;BME280_temperature;BME280_humidity;BME280_pressure;Samples;Min_cycle;Max_cycle;Signal;HPM_P1;HPM_P2
2023/08/27 00:02:22;;;;;;;14.80;4.20;;;;;;;16.55;100.00;99149.39;110003;1282;22537;-50
2023/08/27 00:04:51;;;;;;;3.60;3.20;;;;;;;16.52;100.00;99156.48;109959;1276;100535;-49
2023/08/27 00:07:20;;;;;;;3.50;2.90;;;;;;;16.49;100.00;99160.09;110054;1276;22313;-51
2023/08/27 00:09:49;;;;;;;5.50;3.10;;;;;;;16.42;100.00;99153.33;110043;1277;23281;-49
2023/08/27 00:12:18;;;;;;;4.40;3.30;;;;;;;16.39;100.00;99149.16;109966;1280;100827;-50
2023/08/27 00:14:46;;;;;;;4.10;3.20;;;;;;;16.38;100.00;99168.56;110059;1277;22139;-50
2023/08/27 00:17:15;;;;;;;3.70;3.10;;;;;;;16.32;100.00;99177.64;109961;1280;99699;-49
2023/08/27 00:19:44;;;;;;;3.90;3.50;;;;;;;16.22;100.00;99176.14;110047;1276;22337;-49
2023/08/27 00:22:12;;;;;;;5.30;3.80;;;;;;;16.18;100.00;99177.30;110035;1277;22162;-48
2023/08/27 00:24:41;;;;;;;3.70;3.10;;;;;;;16.16;100.00;99169.45;109939;1276;99627;-50
2023/08/27 00:27:09;;;;;;;3.60;3.30;;;;;;;16.12;100.00;99167.80;110050;1276;22179;-49
2023/08/27 00:29:37;;;;;;;5.30;3.60;;;;;;;16.11;100.00;99170.00;109948;1277;99686;-49
2023/08/27 00:32:06;;;;;;;3.90;3.50;;;;;;;16.17;100.00;99182.36;109988;1276;22296;-50
2023/08/27 00:34:52;;;;;;;4.70;3.40;;;;;;;16.17;100.00;99174.81;109950;1276;100393;-50
2023/08/27 00:37:21;;;;;;;3.50;2.90;;;;;;;16.11;100.00;99168.73;110032;1276;22836;-50
2023/08/27 00:39:50;;;;;;;6.60;4.00;;;;;;;16.13;100.00;99155.23;109987;1278;22416;-52
2023/08/27 00:42:19;;;;;;;3.40;2.90;;;;;;;16.13;100.00;99151.95;109930;1277;99681;-50
2023/08/27 00:44:47;;;;;;;5.50;3.00;;;;;;;16.17;100.00;99160.89;110033;1277;22149;-51
2023/08/27 00:47:16;;;;;;;4.80;3.50;;;;;;;16.19;100.00;99167.23;109954;1277;99673;-51
2023/08/27 00:49:45;;;;;;;3.50;3.00;;;;;;;16.19;100.00;99180.06;109903;1277;23050;-51
2023/08/27 00:52:16;;;;;;;7.10;3.60;;;;;;;16.12;100.00;99185.72;109982;1278;22630;-51
2023/08/27 00:54:45;;;;;;;5.10;3.10;;;;;;;16.12;100.00;99186.95;109890;1276;99481;-51
2023/08/27 00:57:14;;;;;;;5.00;3.50;;;;;;;16.11;100.00;99178.19;109946;1277;22656;-51
2023/08/27 00:59:43;;;;;;;3.80;3.30;;;;;;;16.07;100.00;99172.25;109918;1278;100271;-52
2023/08/27 01:02:12;;;;;;;3.80;2.90;;;;;;;15.96;100.00;99174.48;110012;1277;22281;-52
2023/08/27 01:04:44;;;;;;;5.40;3.70;;;;;;;15.91;100.00;99171.94;109902;1278;100175;-50
2023/08/27 01:07:46;;;;;;;3.70;2.90;;;;;;;15.90;100.00;99181.06;110004;1277;23494;-51
2023/08/27 01:10:40;;;;;;;4.50;4.00;;;;;;;15.88;100.00;99187.94;110014;1276;22095;-52
2023/08/27 01:13:14;;;;;;;4.30;3.30;;;;;;;15.88;100.00;99187.39;109995;1276;22307;-50
2023/08/27 01:15:45;;;;;;;3.40;3.10;;;;;;;15.83;100.00;99178.67;109995;1277;22270;-52
2023/08/27 01:18:15;;;;;;;5.70;3.60;;;;;;;15.85;100.00;99177.98;109786;1276;99683;-49
2023/08/27 01:20:44;;;;;;;7.20;4.60;;;;;;;15.84;100.00;99176.66;110013;1276;22372;-51
2023/08/27 01:23:13;;;;;;;4.30;3.40;;;;;;;15.80;100.00;99169.94;109918;1276;99939;-51
2023/08/27 01:25:52;;;;;;;3.10;2.80;;;;;;;15.84;100.00;99170.66;109992;1276;22234;-51
2023/08/27 01:28:32;;;;;;;3.60;3.00;;;;;;;15.85;100.00;99162.73;110015;1278;22410;-51
2023/08/27 01:31:11;;;;;;;3.40;2.80;;;;;;;15.77;100.00;99162.64;109989;1276;22045;-50
2023/08/27 01:33:40;;;;;;;4.40;3.50;;;;;;;15.68;100.00;99161.86;110016;1276;23083;-50
2023/08/27 01:36:10;;;;;;;3.60;3.30;;;;;;;15.61;100.00;99163.69;109931;1276;99699;-49
2023/08/27 01:38:38;;;;;;;4.30;3.00;;;;;;;15.56;100.00;99159.70;109986;1277;22287;-50
2023/08/27 01:41:07;;;;;;;3.50;2.80;;;;;;;15.57;100.00;99155.02;109920;1276;100452;-51
2023/08/27 01:43:35;;;;;;;3.50;2.60;;;;;;;15.59;100.00;99150.64;110007;1277;22136;-50
2023/08/27 01:46:04;;;;;;;3.30;2.40;;;;;;;15.61;100.00;99156.41;109937;1276;23330;-50
2023/08/27 01:48:32;;;;;;;2.80;2.30;;;;;;;15.58;100.00;99153.70;109913;1278;99780;-49
2023/08/27 01:51:01;;;;;;;4.50;2.60;;;;;;;15.47;100.00;99147.69;110023;1273;22289;-50
2023/08/27 01:53:30;;;;;;;2.40;2.00;;;;;;;15.47;100.00;99144.03;109937;1276;99644;-51
2023/08/27 01:55:58;;;;;;;4.00;1.80;;;;;;;15.46;100.00;99151.14;109985;1277;22296;-51
2023/08/27 01:58:28;;;;;;;2.80;2.00;;;;;;;15.43;100.00;99160.64;110042;1278;22287;-51
2023/08/27 02:00:56;;;;;;;2.30;1.90;;;;;;;15.44;100.00;99164.08;109917;1277;99573;-51
2023/08/27 02:03:25;;;;;;;3.20;2.20;;;;;;;15.51;100.00;99162.67;109981;1277;22273;-52
2023/08/27 02:05:53;;;;;;;2.80;2.10;;;;;;;15.54;100.00;99164.70;109906;1276;98741;-51
2023/08/27 02:08:22;;;;;;;3.30;2.10;;;;;;;15.57;100.00;99157.84;110019;1277;22913;-52
2023/08/27 02:10:50;;;;;;;2.20;1.90;;;;;;;15.61;100.00;99158.60;109900;1276;101726;-51
2023/08/27 02:13:19;;;;;;;1.80;1.60;;;;;;;15.70;100.00;99157.55;109959;1276;22300;-49
2023/08/27 02:15:47;;;;;;;2.70;1.40;;;;;;;15.75;100.00;99166.27;109971;1276;22101;-50
2023/08/27 02:18:16;;;;;;;3.20;1.10;;;;;;;15.72;100.00;99161.82;109916;1278;99722;-51
2023/08/27 02:20:45;;;;;;;3.10;1.40;;;;;;;15.70;100.00;99152.96;110000;1276;23538;-51
2023/08/27 02:23:13;;;;;;;4.30;1.70;;;;;;;15.69;100.00;99147.77;109910;1277;100518;-51
2023/08/27 02:25:42;;;;;;;6.20;2.10;;;;;;;15.69;100.00;99143.23;109993;1277;22403;-52
2023/08/27 02:28:11;;;;;;;7.00;2.90;;;;;;;15.71;100.00;99134.35;109959;1278;22885;-50
2023/08/27 02:30:39;;;;;;;1.70;1.10;;;;;;;15.77;100.00;99133.33;109910;1272;99699;-50
2023/08/27 02:33:08;;;;;;;1.90;1.60;;;;;;;15.83;100.00;99135.95;109971;1276;22323;-51
2023/08/27 02:35:37;;;;;;;1.70;1.30;;;;;;;15.85;100.00;99139.35;109920;1276;100115;-49
2023/08/27 02:38:05;;;;;;;1.50;1.40;;;;;;;15.87;100.00;99141.30;109982;1277;23026;-48
2023/08/27 02:40:34;;;;;;;2.60;1.50;;;;;;;15.89;100.00;99139.95;109902;1277;99810;-51
2023/08/27 02:43:03;;;;;;;3.10;1.50;;;;;;;15.89;100.00;99138.34;109976;1281;22300;-51
2023/08/27 02:45:31;;;;;;;3.00;1.90;;;;;;;15.91;100.00;99128.71;110001;1277;23005;-51
2023/08/27 02:48:00;;;;;;;2.00;1.80;;;;;;;15.94;100.00;99122.38;109923;1276;99776;-51
2023/08/27 02:50:28;;;;;;;2.30;1.50;;;;;;;15.99;100.00;99139.17;110015;1276;23054;-50
2023/08/27 02:52:57;;;;;;;3.30;1.80;;;;;;;16.01;100.00;99158.79;109914;1277;101237;-51
2023/08/27 02:55:28;;;;;;;2.10;1.80;;;;;;;16.02;100.00;99170.89;109952;1277;22180;-50
2023/08/27 02:57:56;;;;;;;1.70;1.30;;;;;;;15.96;100.00;99179.62;110026;1276;23067;-52
2023/08/27 03:00:25;;;;;;;2.40;1.40;;;;;;;15.85;100.00;99190.20;109890;1277;99634;-52
2023/08/27 03:02:54;;;;;;;2.00;1.70;;;;;;;15.86;100.00;99191.05;110007;1283;22275;-49
2023/08/27 03:05:23;;;;;;;2.80;1.60;;;;;;;15.87;100.00;99185.66;109955;1279;100259;-49
2023/08/27 03:07:51;;;;;;;2.10;1.90;;;;;;;15.84;100.00;99185.55;109970;1276;22851;-52
2023/08/27 03:10:22;;;;;;;1.50;1.30;;;;;;;15.89;100.00;99194.16;109982;1277;23449;-52
2023/08/27 03:12:50;;;;;;;3.60;2.10;;;;;;;15.89;100.00;99196.73;109919;1278;99474;-53
2023/08/27 03:15:19;;;;;;;2.00;1.60;;;;;;;15.86;100.00;99193.15;110001;1276;22388;-52
2023/08/27 03:17:48;;;;;;;2.80;1.60;;;;;;;15.83;100.00;99189.17;109900;1276;99720;-52
2023/08/27 03:20:16;;;;;;;2.60;1.80;;;;;;;15.85;100.00;99198.32;109921;1279;22833;-49
2023/08/27 03:22:45;;;;;;;2.80;1.50;;;;;;;15.81;100.00;99206.21;109901;1283;99854;-50
2023/08/27 03:25:13;;;;;;;2.40;1.20;;;;;;;15.71;100.00;99206.98;110013;1276;22259;-49
2023/08/27 03:27:42;;;;;;;2.40;1.50;;;;;;;15.66;100.00;99205.34;109969;1277;22320;-48
2023/08/27 03:30:11;;;;;;;1.80;1.60;;;;;;;15.70;100.00;99199.98;109760;1281;99714;-49
2023/08/27 03:32:40;;;;;;;1.90;1.30;;;;;;;15.74;100.00;99200.05;109907;1276;22813;-49
2023/08/27 03:35:08;;;;;;;3.40;1.50;;;;;;;15.82;100.00;99199.80;109853;1276;99877;-49
2023/08/27 03:37:37;;;;;;;3.20;1.50;;;;;;;15.78;100.00;99197.80;109978;1276;22274;-50
2023/08/27 03:40:06;;;;;;;3.00;1.50;;;;;;;15.74;100.00;99196.55;109958;1276;22870;-48
2023/08/27 03:42:34;;;;;;;2.70;1.60;;;;;;;15.71;100.00;99189.73;109905;1276;99723;-48
2023/08/27 03:45:03;;;;;;;2.90;1.50;;;;;;;15.77;100.00;99183.28;109998;1276;22442;-47
2023/08/27 03:47:32;;;;;;;2.40;1.40;;;;;;;15.88;100.00;99177.69;109924;1276;100446;-50
2023/08/27 03:50:00;;;;;;;1.30;0.90;;;;;;;15.87;100.00;99175.34;109919;1277;22287;-49
2023/08/27 03:52:29;;;;;;;3.90;1.60;;;;;;;15.90;100.00;99179.17;109958;1276;23411;-49
2023/08/27 03:54:57;;;;;;;1.70;1.40;;;;;;;15.92;100.00;99183.39;109965;1276;22343;-49
2023/08/27 03:57:26;;;;;;;2.10;1.10;;;;;;;15.98;100.00;99195.73;109998;1276;22245;-47
2023/08/27 03:59:55;;;;;;;1.90;1.00;;;;;;;15.98;100.00;99203.64;109891;1278;100181;-50
2023/08/27 04:02:23;;;;;;;2.50;1.60;;;;;;;15.94;100.00;99202.78;109967;1276;22323;-50
2023/08/27 04:04:52;;;;;;;2.20;1.40;;;;;;;15.86;100.00;99196.65;109875;1277;99813;-50
2023/08/27 04:07:20;;;;;;;2.50;1.60;;;;;;;15.85;100.00;99200.44;110008;1276;22282;-50
2023/08/27 04:09:49;;;;;;;1.90;1.20;;;;;;;15.83;100.00;99196.32;109946;1276;23169;-48
2023/08/27 04:12:17;;;;;;;2.00;1.20;;;;;;;15.72;100.00;99189.15;109939;1277;99629;-49
2023/08/27 04:14:46;;;;;;;1.60;1.30;;;;;;;15.66;100.00;99204.67;109991;1277;22126;-49
2023/08/27 04:17:15;;;;;;;1.70;1.10;;;;;;;15.61;100.00;99207.86;109902;1277;99857;-49
2023/08/27 04:19:43;;;;;;;2.10;1.50;;;;;;;15.66;100.00;99205.20;109943;1276;22284;-50
2023/08/27 04:22:12;;;;;;;3.80;1.30;;;;;;;15.73;100.00;99204.67;109959;1276;22390;-49
2023/08/27 04:24:44;;;;;;;1.10;0.90;;;;;;;15.80;100.00;99187.09;109908;1276;99635;-49
2023/08/27 04:27:12;;;;;;;1.40;1.20;;;;;;;15.64;100.00;99172.77;109959;1276;23005;-48
2023/08/27 04:29:41;;;;;;;2.10;1.50;;;;;;;15.41;100.00;99175.55;109904;1276;99705;-49
2023/08/27 04:32:09;;;;;;;3.30;1.50;;;;;;;15.43;100.00;99195.77;109971;1276;22269;-49
2023/08/27 04:34:38;;;;;;;2.60;1.20;;;;;;;15.63;100.00;99201.53;109891;1276;99792;-48
2023/08/27 04:37:06;;;;;;;2.50;1.20;;;;;;;15.78;100.00;99204.48;109974;1277;23204;-48
2023/08/27 04:39:35;;;;;;;1.60;1.30;;;;;;;15.93;100.00;99216.72;109916;1278;22625;-49
2023/08/27 04:42:04;;;;;;;1.60;1.50;;;;;;;16.07;100.00;99217.14;109927;1276;99796;-50
2023/08/27 04:44:32;;;;;;;3.00;1.40;;;;;;;16.19;100.00;99219.35;109983;1277;22148;-49
2023/08/27 04:47:01;;;;;;;2.50;1.60;;;;;;;16.32;100.00;99219.77;109925;1276;99969;-48
2023/08/27 04:49:29;;;;;;;1.60;1.20;;;;;;;16.35;100.00;99195.86;109972;1276;22174;-48
2023/08/27 04:51:58;;;;;;;2.00;1.50;;;;;;;16.27;100.00;99199.94;109988;1277;22232;-50
2023/08/27 04:54:26;;;;;;;2.90;1.70;;;;;;;16.25;100.00;99209.42;109918;1280;99652;-49
2023/08/27 04:56:55;;;;;;;1.80;1.40;;;;;;;16.30;100.00;99209.67;109988;1276;22809;-49
2023/08/27 04:59:24;;;;;;;3.00;1.40;;;;;;;16.33;100.00;99202.08;109939;1277;99662;-49
2023/08/27 05:01:55;;;;;;;2.30;1.30;;;;;;;16.31;100.00;99204.88;109978;1276;22344;-50
2023/08/27 05:04:23;;;;;;;5.60;2.50;;;;;;;16.32;100.00;99208.34;109977;1278;22319;-49
2023/08/27 05:06:52;;;;;;;1.50;1.30;;;;;;;16.35;100.00;99207.41;109864;1276;99541;-48
2023/08/27 05:09:20;;;;;;;1.90;1.40;;;;;;;16.40;100.00;99209.48;109972;1277;22045;-47
2023/08/27 05:11:49;;;;;;;1.90;1.50;;;;;;;16.44;100.00;99201.30;109880;1276;100266;-48
2023/08/27 05:14:17;;;;;;;3.70;1.90;;;;;;;16.54;100.00;99195.04;110000;1277;22556;-50
2023/08/27 05:16:46;;;;;;;2.40;1.90;;;;;;;16.65;100.00;99198.83;109920;1277;101358;-49
2023/08/27 05:19:14;;;;;;;2.80;1.90;;;;;;;16.74;100.00;99191.41;109987;1276;22504;-48
2023/08/27 05:21:43;;;;;;;2.10;1.70;;;;;;;16.79;100.00;99177.69;109906;1280;22305;-50
2023/08/27 05:24:12;;;;;;;3.50;2.00;;;;;;;16.86;100.00;99166.14;109917;1277;100187;-48
2023/08/27 05:26:42;;;;;;;2.80;2.40;;;;;;;16.73;100.00;99165.85;109986;1280;22383;-50
2023/08/27 05:29:11;;;;;;;2.80;2.00;;;;;;;16.65;100.00;99171.45;109903;1276;99763;-50
2023/08/27 05:31:39;;;;;;;2.30;1.80;;;;;;;16.79;100.00;99175.81;109981;1277;22415;-50
2023/08/27 05:34:08;;;;;;;2.30;2.10;;;;;;;16.90;100.00;99184.19;109967;1276;22129;-49
2023/08/27 05:36:37;;;;;;;2.40;1.70;;;;;;;16.98;100.00;99191.59;109941;1277;100251;-49
2023/08/27 05:39:06;;;;;;;2.20;2.00;;;;;;;17.11;100.00;99204.97;109937;1276;22319;-51
2023/08/27 05:41:35;;;;;;;1.90;1.50;;;;;;;17.16;100.00;99209.48;109897;1279;100198;-51
2023/08/27 05:44:05;;;;;;;1.80;1.70;;;;;;;17.22;100.00;99205.46;109870;1276;23092;-50
2023/08/27 05:46:34;;;;;;;3.10;1.30;;;;;;;17.44;100.00;99204.85;109649;1275;99800;-46
2023/08/27 05:49:06;;;;;;;1.50;1.20;;;;;;;17.67;100.00;99193.56;109868;1277;22165;-47
2023/08/27 05:51:35;;;;;;;2.60;1.60;;;;;;;17.89;100.00;99186.09;109879;1276;22349;-50
2023/08/27 05:54:03;;;;;;;2.70;1.60;;;;;;;18.16;100.00;99187.48;109834;1277;101652;-49
2023/08/27 05:56:32;;;;;;;2.30;1.30;;;;;;;18.44;100.00;99195.95;109849;1279;22372;-49
2023/08/27 05:59:01;;;;;;;2.20;1.40;;;;;;;18.72;100.00;99209.14;109778;1277;99888;-50
2023/08/27 06:01:30;;;;;;;1.90;1.20;;;;;;;18.79;100.00;99234.48;109929;1276;22988;-53
2023/08/27 06:03:59;;;;;;;3.60;1.30;;;;;;;18.73;100.00;99238.70;109941;1277;22366;-54
2023/08/27 06:06:27;;;;;;;1.50;1.20;;;;;;;18.80;100.00;99241.66;109464;1277;538937;-54
2023/08/27 06:08:56;;;;;;;2.30;1.30;;;;;;;18.90;100.00;99233.63;109945;1276;22989;-52
2023/08/27 06:11:25;;;;;;;1.20;1.00;;;;;;;19.12;100.00;99224.31;109778;1276;101443;-54
2023/08/27 06:14:03;;;;;;;1.80;1.10;;;;;;;19.28;100.00;99216.15;109995;1272;22072;-51
2023/08/27 06:16:42;;;;;;;2.30;1.00;;;;;;;19.46;100.00;99209.35;109789;1276;99834;-53
2023/08/27 06:19:15;;;;;;;2.90;1.10;;;;;;;19.54;100.00;99186.01;110011;1276;22761;-54
2023/08/27 06:21:48;;;;;;;2.60;1.00;;;;;;;19.67;100.00;99160.86;109936;1276;22225;-54
2023/08/27 06:24:22;;;;;;;1.50;0.60;;;;;;;19.59;100.00;99161.42;109883;1277;100085;-54
2023/08/27 06:27:02;;;;;;;1.30;0.70;;;;;;;19.59;100.00;99159.46;109928;1277;22411;-54
2023/08/27 06:29:33;;;;;;;1.60;0.60;;;;;;;19.65;100.00;99166.30;109870;1276;99690;-55
2023/08/27 06:32:06;;;;;;;2.10;0.90;;;;;;;19.74;100.00;99178.91;109874;1276;22397;-56
2023/08/27 06:34:45;;;;;;;2.50;0.80;;;;;;;19.92;100.00;99206.19;109870;1277;100319;-54
2023/08/27 06:37:18;;;;;;;0.70;0.60;;;;;;;20.13;100.00;99223.42;109885;1277;22263;-54
2023/08/27 06:39:50;;;;;;;1.00;0.50;;;;;;;20.31;100.00;99226.84;109988;1276;22171;-54
2023/08/27 06:42:25;;;;;;;1.90;0.80;;;;;;;20.44;100.00;99220.88;109874;1276;99656;-53
2023/08/27 06:44:57;;;;;;;1.10;0.60;;;;;;;20.74;100.00;99218.35;109969;1276;23844;-54
2023/08/27 06:47:30;;;;;;;1.40;0.80;;;;;;;20.94;100.00;99205.89;109814;1277;100162;-52
2023/08/27 06:50:06;;;;;;;2.50;0.40;;;;;;;21.00;100.00;99195.95;109965;1276;23159;-54
2023/08/27 06:52:45;;;;;;;1.90;0.60;;;;;;;21.18;100.00;99191.10;109885;1276;99858;-53
2023/08/27 06:55:16;;;;;;;2.90;0.50;;;;;;;21.39;100.00;99193.96;109947;1276;22212;-52
2023/08/27 06:57:49;;;;;;;1.10;0.60;;;;;;;21.48;100.00;99192.21;109904;1266;22319;-53
2023/08/27 07:00:25;;;;;;;0.30;0.30;;;;;;;21.51;100.00;99200.27;109816;1276;99682;-55
2023/08/27 07:03:12;;;;;;;0.50;0.50;;;;;;;21.61;100.00;99203.11;109900;1276;23224;-55
2023/08/27 07:05:47;;;;;;;0.90;0.40;;;;;;;21.72;100.00;99204.87;109842;1276;99649;-53
2023/08/27 07:08:19;;;;;;;0.80;0.50;;;;;;;21.81;100.00;99198.94;109776;1276;22322;-52
2023/08/27 07:10:51;;;;;;;1.20;0.30;;;;;;;22.00;100.00;99194.70;109815;1276;99849;-53
2023/08/27 07:13:20;;;;;;;1.00;0.50;;;;;;;22.45;100.00;99188.42;109714;1280;22283;-52
2023/08/27 07:15:49;;;;;;;0.80;0.40;;;;;;;22.79;100.00;99190.00;109838;1277;22299;-53
2023/08/27 07:18:17;;;;;;;0.80;0.40;;;;;;;22.76;100.00;99186.61;109894;1276;99665;-52
2023/08/27 07:20:47;;;;;;;0.40;0.20;;;;;;;22.90;100.00;99177.85;109999;1276;22364;-54
2023/08/27 07:23:16;;;;;;;1.50;0.40;;;;;;;23.45;100.00;99163.76;109891;1276;99986;-54
2023/08/27 07:25:44;;;;;;;0.20;0.20;;;;;;;24.14;100.00;99160.26;109966;1276;22158;-54
2023/08/27 07:28:13;;;;;;;0.40;0.40;;;;;;;24.31;100.00;99169.38;109963;1276;22270;-53
2023/08/27 07:30:41;;;;;;;0.40;0.40;;;;;;;24.09;100.00;99182.02;109870;1277;99836;-55
2023/08/27 07:33:13;;;;;;;0.60;0.40;;;;;;;23.81;100.00;99190.63;109976;1277;23101;-54
2023/08/27 07:35:45;;;;;;;0.80;0.40;;;;;;;23.55;100.00;99188.96;109912;1276;99993;-55
2023/08/27 07:38:19;;;;;;;1.00;0.30;;;;;;;23.43;100.00;99186.13;109868;1276;22322;-55
2023/08/27 07:41:11;;;;;;;0.60;0.40;;;;;;;23.49;100.00;99187.41;109823;1276;99960;-55
2023/08/27 07:43:50;;;;;;;1.30;0.40;;;;;;;24.00;100.00;99197.92;109979;1276;23157;-53
2023/08/27 07:46:24;;;;;;;1.50;0.30;;;;;;;25.13;100.00;99195.02;109917;1276;22133;-55
2023/08/27 07:48:58;;;;;;;0.90;0.30;;;;;;;26.12;100.00;99193.86;109829;1277;99382;-55
2023/08/27 07:51:53;;;;;;;0.50;0.20;;;;;;;27.12;100.00;99199.55;109891;1279;22372;-55
2023/08/27 07:54:27;;;;;;;0.50;0.30;;;;;;;27.69;100.00;99195.21;109905;1276;100079;-55
2023/08/27 07:57:01;;;;;;;1.40;0.30;;;;;;;28.48;100.00;99182.68;109956;1277;22305;-56
2023/08/27 07:59:35;;;;;;;2.00;0.70;;;;;;;30.04;100.00;99178.23;109890;1276;100296;-56
2023/08/27 08:02:04;;;;;;;0.40;0.20;;;;;;;31.52;100.00;99183.57;109982;1276;22319;-56
2023/08/27 08:04:33;;;;;;;1.10;0.30;;;;;;;32.95;100.00;99187.79;109853;1277;101548;-54
2023/08/27 08:07:01;;;;;;;0.60;0.20;;;;;;;33.46;100.00;99196.05;110016;1276;22309;-56
2023/08/27 08:09:30;;;;;;;1.40;0.50;;;;;;;33.88;99.11;99205.06;109951;1276;22298;-55
2023/08/27 08:11:59;;;;;;;0.40;0.20;;;;;;;32.71;91.25;99214.80;109883;1274;100193;-56
2023/08/27 08:14:31;;;;;;;0.10;0.10;;;;;;;31.14;91.33;99203.58;109912;1276;22263;-55
2023/08/27 08:17:02;;;;;;;0.50;0.30;;;;;;;30.82;96.15;99197.38;109922;1276;99620;-56
2023/08/27 08:19:31;;;;;;;1.10;0.30;;;;;;;31.05;95.37;99194.67;109943;1276;22536;-55
2023/08/27 08:22:03;;;;;;;0.70;0.30;;;;;;;30.54;92.09;99192.48;109985;1276;22346;-56
2023/08/27 08:24:32;;;;;;;1.70;0.30;;;;;;;29.19;90.82;99193.33;109884;1276;99480;-55
2023/08/27 08:27:02;;;;;;;0.80;0.20;;;;;;;28.84;91.37;99199.48;109975;1277;22275;-56
2023/08/27 08:29:35;;;;;;;0.40;0.20;;;;;;;28.96;90.56;99205.79;109881;1276;98511;-55
2023/08/27 08:32:06;;;;;;;2.00;0.30;;;;;;;29.38;90.01;99200.64;110006;1276;22274;-55
2023/08/27 08:34:35;;;;;;;0.50;0.40;;;;;;;29.14;88.25;99191.67;109904;1277;99728;-55
2023/08/27 08:37:06;;;;;;;0.30;0.20;;;;;;;28.81;86.71;99197.97;109977;1277;22372;-55
2023/08/27 08:39:35;;;;;;;0.30;0.20;;;;;;;28.73;88.07;99203.91;109961;1276;22013;-55
2023/08/27 08:42:18;;;;;;;1.00;0.40;;;;;;;29.30;85.84;99196.80;109894;1277;99461;-56
2023/08/27 08:45:13;;;;;;;2.20;0.40;;;;;;;28.44;82.70;99200.94;109897;1276;22274;-55
2023/08/27 08:47:54;;;;;;;0.50;0.30;;;;;;;27.51;82.27;99197.77;109877;1276;99598;-56
2023/08/27 08:50:29;;;;;;;0.80;0.40;;;;;;;28.03;85.90;99194.59;109869;1276;22290;-56
2023/08/27 08:53:05;;;;;;;2.10;0.40;;;;;;;30.22;86.83;99205.55;109831;1276;100760;-54
2023/08/27 08:55:37;;;;;;;1.20;0.30;;;;;;;32.42;85.27;99207.68;109965;1277;22138;-55
2023/08/27 08:58:13;;;;;;;0.50;0.30;;;;;;;34.01;83.24;99202.70;109850;1277;22203;-55
2023/08/27 09:00:55;;;;;;;1.20;0.40;;;;;;;36.66;84.65;99202.14;109833;1277;99724;-54
2023/08/27 09:03:38;;;;;;;0.80;0.40;;;;;;;38.78;82.41;99194.30;109910;1276;22817;-55
2023/08/27 09:06:07;;;;;;;0.60;0.20;;;;;;;40.73;81.54;99194.11;109924;1276;99549;-55
2023/08/27 09:08:37;;;;;;;0.60;0.40;;;;;;;42.53;81.41;99202.23;109938;1276;22402;-56
2023/08/27 09:11:30;;;;;;;0.20;0.20;;;;;;;42.73;73.97;99203.02;109849;1277;99722;-56
2023/08/27 09:14:02;;;;;;;0.40;0.40;;;;;;;42.91;73.02;99189.02;109915;1277;22311;-56
2023/08/27 09:16:33;;;;;;;0.60;0.40;;;;;;;44.93;73.98;99187.93;110024;1276;22996;-56
2023/08/27 09:19:02;;;;;;;1.70;0.50;;;;;;;45.53;66.45;99191.28;109861;1278;22312;-56
2023/08/27 09:21:34;;;;;;;0.80;0.60;;;;;;;46.54;67.98;99190.45;109878;1276;22266;-57
2023/08/27 09:24:16;;;;;;;0.80;0.50;;;;;;;47.22;62.05;99189.52;109704;1276;99604;-56
2023/08/27 09:27:29;;;;;;;1.90;0.70;;;;;;;45.32;56.46;99195.55;109772;1276;25172;-56
2023/08/27 09:30:05;;;;;;;1.10;0.70;;;;;;;43.87;52.82;99185.06;109831;1277;99587;-55
2023/08/27 09:32:34;;;;;;;1.10;0.70;;;;;;;44.22;51.91;99191.58;109931;1277;22293;-58
2023/08/27 09:35:14;;;;;;;1.10;0.70;;;;;;;44.72;49.53;99190.16;109805;1278;99794;-58
2023/08/27 09:37:47;;;;;;;0.90;0.80;;;;;;;44.52;42.45;99190.87;109877;1277;22280;-58
2023/08/27 09:40:16;;;;;;;0.90;0.90;;;;;;;44.66;40.75;99198.48;109999;1276;22311;-57
2023/08/27 09:42:46;;;;;;;1.00;1.00;;;;;;;44.64;37.81;99197.87;109864;1277;99717;-57
2023/08/27 09:45:17;;;;;;;1.20;1.10;;;;;;;45.31;36.21;99196.37;109985;1275;22160;-57
2023/08/27 09:47:46;;;;;;;1.00;0.90;;;;;;;44.24;34.12;99186.98;109846;1276;99570;-57
2023/08/27 09:50:18;;;;;;;0.70;0.70;;;;;;;43.78;34.75;99187.61;109998;1276;22298;-57
2023/08/27 09:52:46;;;;;;;1.00;0.60;;;;;;;44.12;33.97;99189.48;109844;1276;99534;-57
2023/08/27 09:55:19;;;;;;;1.10;1.00;;;;;;;44.17;34.40;99195.31;109952;1276;22188;-57
2023/08/27 09:57:49;;;;;;;0.80;0.60;;;;;;;45.47;33.10;99197.00;110011;1277;23000;-57
2023/08/27 10:00:19;;;;;;;1.10;1.00;;;;;;;46.72;33.00;99191.73;109944;1276;99509;-58
2023/08/27 10:02:51;;;;;;;0.80;0.80;;;;;;;46.85;31.35;99184.77;110001;1276;22430;-57
2023/08/27 10:05:31;;;;;;;1.40;0.90;;;;;;;46.26;31.18;99187.14;109921;1274;99651;-58
2023/08/27 10:08:04;;;;;;;0.60;0.50;;;;;;;45.48;30.05;99204.80;110045;1276;22569;-57
2023/08/27 10:10:36;;;;;;;0.60;0.60;;;;;;;42.89;29.29;99201.24;110042;1276;22507;-56
2023/08/27 10:13:05;;;;;;;0.60;0.40;;;;;;;41.09;29.32;99197.97;110004;1276;22421;-58
2023/08/27 10:15:36;;;;;;;0.40;0.40;;;;;;;39.87;28.97;99199.27;109990;1276;22348;-58
2023/08/27 10:18:13;;;;;;;1.50;0.60;;;;;;;40.14;29.56;99199.18;109924;1276;99441;-58
2023/08/27 10:20:42;;;;;;;0.80;0.40;;;;;;;41.43;29.26;99207.39;109999;1273;22352;-58
2023/08/27 10:23:15;;;;;;;0.40;0.40;;;;;;;41.82;29.34;99209.32;109911;1273;100075;-57
2023/08/27 10:25:47;;;;;;;0.60;0.30;;;;;;;42.16;28.96;99207.24;110006;1277;22356;-58
2023/08/27 10:28:17;;;;;;;0.30;0.20;;;;;;;41.79;28.90;99209.36;109996;1276;22796;-58
2023/08/27 10:30:51;;;;;;;0.50;0.30;;;;;;;40.45;28.47;99208.78;109694;1273;99661;-58
2023/08/27 10:33:22;;;;;;;0.50;0.30;;;;;;;39.60;29.19;99205.23;109772;1276;23059;-57
2023/08/27 10:35:53;;;;;;;0.80;0.30;;;;;;;39.40;29.30;99207.11;109636;1273;100101;-59
2023/08/27 10:38:30;;;;;;;1.00;0.60;;;;;;;38.72;28.80;99196.27;109732;1278;22179;-58
2023/08/27 10:40:59;;;;;;;0.40;0.30;;;;;;;36.55;27.74;99189.77;109354;1276;100243;-57
2023/08/27 10:43:34;;;;;;;0.30;0.30;;;;;;;34.25;28.21;99186.58;109672;1277;22320;-58
2023/08/27 10:46:16;;;;;;;0.20;0.10;;;;;;;34.09;29.54;99190.08;109642;1277;23527;-56
2023/08/27 10:48:49;;;;;;;0.50;0.50;;;;;;;34.81;29.01;99191.27;109600;1276;99906;-55
2023/08/27 10:51:21;;;;;;;0.80;0.50;;;;;;;34.65;28.94;99181.15;109701;1276;22305;-53
2023/08/27 10:53:52;;;;;;;1.20;0.40;;;;;;;34.19;29.54;99182.22;109587;1273;99920;-55
2023/08/27 10:56:39;;;;;;;0.30;0.30;;;;;;;34.55;30.15;99174.86;109706;1277;22842;-56
2023/08/27 10:59:10;;;;;;;0.40;0.30;;;;;;;35.57;29.25;99173.71;109481;1276;100516;-58
2023/08/27 11:02:07;;;;;;;1.70;0.60;;;;;;;36.13;29.01;99169.22;109691;1276;23159;-54
2023/08/27 11:04:39;;;;;;;0.80;0.30;;;;;;;36.88;29.64;99175.16;109554;1276;100290;-56
2023/08/27 11:07:17;;;;;;;0.80;0.40;;;;;;;37.08;29.63;99174.09;109625;1277;22286;-56
2023/08/27 11:09:47;;;;;;;0.40;0.30;;;;;;;37.82;30.28;99169.75;109574;1277;22333;-58
2023/08/27 11:12:28;;;;;;;0.70;0.60;;;;;;;38.32;30.10;99168.21;109533;1273;99826;-58
2023/08/27 11:15:12;;;;;;;0.60;0.30;;;;;;;36.59;28.68;99165.87;109585;1277;22374;-58
2023/08/27 11:17:42;;;;;;;;;;;;;;;33.96;28.65;99169.86;109636;1276;99895;-58
2023/08/27 11:20:23;;;;;;;0.50;0.30;;;;;;;32.27;28.93;99173.58;109615;1272;22288;-60
2023/08/27 11:23:02;;;;;;;1.40;0.40;;;;;;;30.66;30.07;99173.24;109627;1277;101230;-60
2023/08/27 11:25:31;;;;;;;0.90;0.30;;;;;;;30.30;30.66;99170.36;109738;1277;22814;-61
2023/08/27 11:28:00;;;;;;;1.00;0.40;;;;;;;29.79;30.56;99162.94;109640;1277;22775;-60
2023/08/27 11:30:30;;;;;;;1.10;0.30;;;;;;;28.97;31.38;99161.89;109621;1276;100196;-60
2023/08/27 11:33:06;;;;;;;0.50;0.30;;;;;;;28.37;31.93;99166.95;109504;1279;22317;-60
2023/08/27 11:35:43;;;;;;;1.50;0.60;;;;;;;27.75;32.39;99167.21;109449;1279;99766;-60
2023/08/27 11:38:32;;;;;;;1.00;0.50;;;;;;;27.23;32.88;99165.11;109595;1280;23062;-60
2023/08/27 11:41:04;;;;;;;0.40;0.30;;;;;;;26.78;33.73;99164.84;109452;1278;99643;-60